Latest Weather Observations for Ocean Reef

IDW60801

Issued at 12:02 pm WST Sunday 1 February 2015 (issued every 30 minutes, with the page automatically refreshed every 10 minutes)

About weather observations | Map of weather stations | Latest weather observations for WA | Other Formats
Station Details ID: 009214 Name: OCEAN REEF Lat: -31.76 Lon: 115.73 Height: 10.0 m
Data from the previous 72 hours. | See also: Recent months for locations in Western Australia
Date/Time
WST
Temp
°C
App
Temp
°C
Dew
Point
Rel
Hum
%
Delta-T
°C
Wind Press
QNH
hPa
Press
MSL
hPa
Rain
since 9 am
mm
Dir
 
Spd
km/h
Gust
km/h
Spd
kts
Gust
kts
01/12:00pm - - - - - SE 17 26 9 14 - - -
01/11:30am - - - - - ESE 22 33 12 18 - - -
01/11:00am - - - - - E 26 37 14 20 - - -
01/10:30am - - - - - E 26 37 14 20 - - -
01/10:00am - - - - - E 22 33 12 18 - - -
01/09:30am - - - - - E 26 37 14 20 - - -
01/09:00am - - - - - E 17 26 9 14 - - -
01/08:30am - - - - - E 22 32 12 17 - - -
01/08:00am - - - - - E 26 39 14 21 - - -
01/07:30am - - - - - E 32 43 17 23 - - -
01/07:00am - - - - - ESE 28 39 15 21 - - -
01/06:30am - - - - - ESE 26 37 14 20 - - -
01/06:00am - - - - - ESE 28 35 15 19 - - -
01/05:30am - - - - - ESE 26 39 14 21 - - -
01/05:00am - - - - - ESE 26 39 14 21 - - -
01/04:30am - - - - - ESE 26 37 14 20 - - -
01/04:00am - - - - - ESE 26 39 14 21 - - -
01/03:30am - - - - - ESE 24 35 13 19 - - -
01/03:00am - - - - - ESE 24 33 13 18 - - -
01/02:30am - - - - - ESE 26 39 14 21 - - -
01/02:00am - - - - - E 22 37 12 20 - - -
01/01:30am - - - - - E 22 35 12 19 - - -
01/01:00am - - - - - ESE 22 33 12 18 - - -
01/12:30am - - - - - ESE 22 33 12 18 - - -
01/12:00am - - - - - ESE 22 32 12 17 - - -
 
Date/Time
WST
Temp
°C
App
Temp
°C
Dew
Point
Rel
Hum
%
Delta-T
°C
Wind Press
QNH
hPa
Press
MSL
hPa
Rain
since 9 am
mm
Dir
 
Spd
km/h
Gust
km/h
Spd
kts
Gust
kts
31/11:30pm - - - - - ESE 24 33 13 18 - - -
31/11:00pm - - - - - ESE 22 33 12 18 - - -
31/10:30pm - - - - - ESE 24 39 13 21 - - -
31/10:00pm - - - - - ESE 19 30 10 16 - - -
31/09:30pm - - - - - ESE 17 26 9 14 - - -
31/09:00pm - - - - - ESE 19 28 10 15 - - -
31/08:30pm - - - - - ESE 19 28 10 15 - - -
31/08:00pm - - - - - ESE 17 24 9 13 - - -
31/07:30pm - - - - - ESE 19 28 10 15 - - -
31/07:00pm - - - - - ESE 24 33 13 18 - - -
31/06:30pm - - - - - E 19 30 10 16 - - -
31/06:00pm - - - - - E 15 20 8 11 - - -
31/05:30pm - - - - - SE 17 26 9 14 - - -
31/05:00pm - - - - - ESE 17 30 9 16 - - -
31/04:30pm - - - - - ESE 20 30 11 16 - - -
31/04:00pm - - - - - ESE 13 19 7 10 - - -
31/03:30pm - - - - - SE 15 20 8 11 - - -
31/03:00pm - - - - - ESE 15 30 8 16 - - -
31/02:30pm - - - - - ESE 17 26 9 14 - - -
31/02:00pm - - - - - ESE 15 24 8 13 - - -
31/01:30pm - - - - - ESE 17 28 9 15 - - -
31/01:00pm - - - - - ESE 24 33 13 18 - - -
31/12:30pm - - - - - ESE 22 35 12 19 - - -
31/12:00pm - - - - - ESE 24 37 13 20 - - -
31/11:30am - - - - - ESE 24 35 13 19 - - -
31/11:00am - - - - - E 26 39 14 21 - - -
31/10:30am - - - - - E 22 37 12 20 - - -
31/10:00am - - - - - E 28 37 15 20 - - -
31/09:30am - - - - - E 26 39 14 21 - - -
31/09:00am - - - - - E 24 39 13 21 - - -
31/08:30am - - - - - E 30 39 16 21 - - -
31/08:00am - - - - - E 32 50 17 27 - - -
31/07:46am - - - - - E 30 46 16 25 - - -
31/07:30am - - - - - E 28 41 15 22 - - -
31/07:00am - - - - - E 28 41 15 22 - - -
31/06:30am - - - - - E 26 37 14 20 - - -
31/06:00am - - - - - E 20 30 11 16 - - -
31/05:30am - - - - - E 26 33 14 18 - - -
31/05:00am - - - - - E 24 35 13 19 - - -
31/04:30am - - - - - E 26 35 14 19 - - -
31/04:00am - - - - - E 26 37 14 20 - - -
31/03:32am - - - - - E 30 48 16 26 - - -
31/03:30am - - - - - E 32 48 17 26 - - -
31/03:24am - - - - - E 28 46 15 25 - - -
31/03:00am - - - - - E 32 48 17 26 - - -
31/02:47am - - - - - E 28 46 15 25 - - -
31/02:30am - - - - - E 26 39 14 21 - - -
31/02:00am - - - - - E 30 44 16 24 - - -
31/01:50am - - - - - E 28 46 15 25 - - -
31/01:30am - - - - - E 30 46 16 25 - - -
31/01:00am - - - - - E 32 44 17 24 - - -
31/12:30am - - - - - E 30 41 16 22 - - -
31/12:01am - - - - - ESE 28 48 15 26 - - -
31/12:00am - - - - - ESE 26 41 14 22 - - -
 
Date/Time
WST
Temp
°C
App
Temp
°C
Dew
Point
Rel
Hum
%
Delta-T
°C
Wind Press
QNH
hPa
Press
MSL
hPa
Rain
since 9 am
mm
Dir
 
Spd
km/h
Gust
km/h
Spd
kts
Gust
kts
30/11:30pm - - - - - ESE 30 48 16 26 - - -
30/11:00pm - - - - - ESE 35 54 19 29 - - -
30/10:32pm - - - - - ESE 33 52 18 28 - - -
30/10:30pm - - - - - ESE 32 44 17 24 - - -
30/10:02pm - - - - - ESE 30 48 16 26 - - -
30/10:00pm - - - - - ESE 32 48 17 26 - - -
30/09:41pm - - - - - SE 28 41 15 22 - - -
30/09:30pm - - - - - SE 15 19 8 10 - - -
30/09:00pm - - - - - SE 15 22 8 12 - - -
30/08:30pm - - - - - SE 13 17 7 9 - - -
30/08:00pm - - - - - SSE 13 15 7 8 - - -
30/07:30pm - - - - - ESE 13 17 7 9 - - -
30/07:00pm - - - - - ESE 13 17 7 9 - - -
30/06:30pm - - - - - E 15 22 8 12 - - -
30/06:00pm - - - - - ENE 22 32 12 17 - - -
30/05:38pm - - - - - E 28 48 15 26 - - -
30/05:30pm - - - - - E 24 39 13 21 - - -
30/05:00pm - - - - - ESE 17 30 9 16 - - -
30/04:30pm - - - - - E 15 19 8 10 - - -
30/04:00pm - - - - - E 13 19 7 10 - - -
30/03:30pm - - - - - E 13 20 7 11 - - -
30/03:00pm - - - - - E 20 28 11 15 - - -
30/02:30pm - - - - - ENE 22 33 12 18 - - -
30/02:00pm - - - - - ENE 19 26 10 14 - - -
30/01:30pm - - - - - ENE 13 20 7 11 - - -
30/01:00pm - - - - - SW 19 22 10 12 - - -
30/12:30pm - - - - - WSW 22 28 12 15 - - -
30/12:00pm - - - - - ESE 11 19 6 10 - - -
30/11:30am - - - - - E 15 19 8 10 - - -
30/11:00am - - - - - E 17 22 9 12 - - -
30/10:30am - - - - - E 11 19 6 10 - - -
30/10:00am - - - - - ESE 13 17 7 9 - - -
30/09:30am - - - - - E 20 28 11 15 - - -
30/09:00am - - - - - E 22 33 12 18 - - -
30/08:30am - - - - - ESE 19 26 10 14 - - -
30/08:00am - - - - - ENE 9 15 5 8 - - -
30/07:30am - - - - - S 11 19 6 10 - - -
30/07:00am - - - - - E 15 20 8 11 - - -
30/06:30am - - - - - ESE 17 24 9 13 - - -
30/06:00am - - - - - S 11 13 6 7 - - -
30/05:30am - - - - - SSE 11 11 6 6 - - -
30/05:00am - - - - - SSE 11 13 6 7 - - -
30/04:30am - - - - - SSE 11 13 6 7 - - -
30/04:00am - - - - - S 9 11 5 6 - - -
30/03:30am - - - - - SE 15 17 8 9 - - -
30/03:00am - - - - - SSE 9 13 5 7 - - -
30/02:30am - - - - - SSE 11 13 6 7 - - -
30/02:00am - - - - - SSE 7 7 4 4 - - -
30/01:30am - - - - - SSW 4 7 2 4 - - -
30/01:00am - - - - - NE 2 7 1 4 - - -
30/12:30am - - - - - N 6 7 3 4 - - -
30/12:00am - - - - - N 4 9 2 5 - - -
 
Date/Time
WST
Temp
°C
App
Temp
°C
Dew
Point
Rel
Hum
%
Delta-T
°C
Wind Press
QNH
hPa
Press
MSL
hPa
Rain
since 9 am
mm
Dir
 
Spd
km/h
Gust
km/h
Spd
kts
Gust
kts
29/11:30pm - - - - - N 7 9 4 5 - - -
29/11:00pm - - - - - NNE 11 22 6 12 - - -
29/10:30pm - - - - - NNE 17 39 9 21 - - -
29/10:00pm - - - - - S 9 13 5 7 - - -
29/09:30pm - - - - - S 9 13 5 7 - - -
29/09:00pm - - - - - S 13 17 7 9 - - -
29/08:30pm - - - - - S 24 30 13 16 - - -
29/08:00pm - - - - - S 32 35 17 19 - - -
29/07:30pm - - - - - S 33 39 18 21 - - -
29/07:00pm - - - - - S 33 44 18 24 - - -
29/06:30pm - - - - - S 32 41 17 22 - - -
29/06:00pm - - - - - S 30 37 16 20 - - -
29/05:30pm - - - - - S 32 37 17 20 - - -
29/05:00pm - - - - - S 32 39 17 21 - - -
29/04:30pm - - - - - S 30 39 16 21 - - -
29/04:00pm - - - - - S 35 41 19 22 - - -
29/03:30pm - - - - - S 33 41 18 22 - - -
29/03:00pm - - - - - S 33 39 18 21 - - -
29/02:30pm - - - - - S 33 39 18 21 - - -
29/02:00pm - - - - - SSW 28 33 15 18 - - -
29/01:30pm - - - - - SSW 30 35 16 19 - - -
29/01:00pm - - - - - SSW 26 30 14 16 - - -
29/12:30pm - - - - - SSW 28 32 15 17 - - -

Other Formats:

Comma delimited format used in spreadsheet applications
http://www.bom.gov.au/fwo/IDW60801/IDW60801.94607.axf

JavaScript Object Notation format (JSON) in row-major order
http://www.bom.gov.au/fwo/IDW60801/IDW60801.94607.json